sensor_id;sensor_type;location;lat;lon;timestamp;P1;durP1;ratioP1;P2;durP2;ratioP2
67514;SDS011;60646;55.802;37.032;2023-06-24T00:02:13;5.10;;;3.70;;
67514;SDS011;60646;55.802;37.032;2023-06-24T00:04:39;4.75;;;3.55;;
67514;SDS011;60646;55.802;37.032;2023-06-24T00:07:04;5.70;;;3.80;;
67514;SDS011;60646;55.802;37.032;2023-06-24T00:09:30;6.13;;;3.92;;
67514;SDS011;60646;55.802;37.032;2023-06-24T00:11:57;8.00;;;4.05;;
67514;SDS011;60646;55.802;37.032;2023-06-24T00:14:27;5.18;;;3.58;;
67514;SDS011;60646;55.802;37.032;2023-06-24T00:16:53;5.85;;;3.70;;
67514;SDS011;60646;55.802;37.032;2023-06-24T00:19:20;5.00;;;3.55;;
67514;SDS011;60646;55.802;37.032;2023-06-24T00:21:48;5.15;;;3.72;;
67514;SDS011;60646;55.802;37.032;2023-06-24T00:24:17;4.82;;;3.70;;
67514;SDS011;60646;55.802;37.032;2023-06-24T00:26:48;5.75;;;4.07;;
67514;SDS011;60646;55.802;37.032;2023-06-24T00:29:14;6.78;;;4.05;;
67514;SDS011;60646;55.802;37.032;2023-06-24T00:31:41;5.70;;;4.07;;
67514;SDS011;60646;55.802;37.032;2023-06-24T00:34:07;7.32;;;3.92;;
67514;SDS011;60646;55.802;37.032;2023-06-24T00:36:33;5.80;;;4.03;;
67514;SDS011;60646;55.802;37.032;2023-06-24T00:39:04;5.15;;;4.03;;
67514;SDS011;60646;55.802;37.032;2023-06-24T00:41:31;7.45;;;3.78;;
67514;SDS011;60646;55.802;37.032;2023-06-24T00:43:58;4.88;;;3.53;;
67514;SDS011;60646;55.802;37.032;2023-06-24T00:46:25;5.10;;;3.38;;
67514;SDS011;60646;55.802;37.032;2023-06-24T00:48:54;5.88;;;4.05;;
67514;SDS011;60646;55.802;37.032;2023-06-24T00:51:20;5.90;;;3.67;;
67514;SDS011;60646;55.802;37.032;2023-06-24T00:53:47;4.80;;;3.45;;
67514;SDS011;60646;55.802;37.032;2023-06-24T00:56:15;4.97;;;3.45;;
67514;SDS011;60646;55.802;37.032;2023-06-24T00:58:44;4.72;;;3.58;;
67514;SDS011;60646;55.802;37.032;2023-06-24T01:01:10;5.07;;;3.60;;
67514;SDS011;60646;55.802;37.032;2023-06-24T01:03:36;6.10;;;4.60;;
67514;SDS011;60646;55.802;37.032;2023-06-24T01:06:02;5.90;;;3.95;;
67514;SDS011;60646;55.802;37.032;2023-06-24T01:08:28;4.55;;;3.50;;
67514;SDS011;60646;55.802;37.032;2023-06-24T01:10:54;5.50;;;3.70;;
67514;SDS011;60646;55.802;37.032;2023-06-24T01:13:38;4.50;;;3.55;;
67514;SDS011;60646;55.802;37.032;2023-06-24T01:16:07;5.70;;;3.70;;
67514;SDS011;60646;55.802;37.032;2023-06-24T01:18:40;4.88;;;3.55;;
67514;SDS011;60646;55.802;37.032;2023-06-24T01:21:15;6.93;;;3.95;;
67514;SDS011;60646;55.802;37.032;2023-06-24T01:32:01;3.60;;;2.53;;
67514;SDS011;60646;55.802;37.032;2023-06-24T01:34:33;2.85;;;2.20;;
67514;SDS011;60646;55.802;37.032;2023-06-24T01:42:30;1.45;;;1.20;;
67514;SDS011;60646;55.802;37.032;2023-06-24T01:44:57;1.45;;;1.13;;
67514;SDS011;60646;55.802;37.032;2023-06-24T01:47:25;1.60;;;1.20;;
67514;SDS011;60646;55.802;37.032;2023-06-24T01:49:54;1.20;;;1.10;;
67514;SDS011;60646;55.802;37.032;2023-06-24T01:52:24;1.30;;;0.80;;
67514;SDS011;60646;55.802;37.032;2023-06-24T01:54:55;0.90;;;0.80;;
67514;SDS011;60646;55.802;37.032;2023-06-24T01:57:21;1.33;;;0.90;;
67514;SDS011;60646;55.802;37.032;2023-06-24T01:59:48;1.58;;;0.70;;
67514;SDS011;60646;55.802;37.032;2023-06-24T02:02:18;0.90;;;0.70;;
67514;SDS011;60646;55.802;37.032;2023-06-24T02:04:46;1.00;;;0.70;;
67514;SDS011;60646;55.802;37.032;2023-06-24T02:07:15;0.82;;;0.70;;
67514;SDS011;60646;55.802;37.032;2023-06-24T02:09:44;0.90;;;0.75;;
67514;SDS011;60646;55.802;37.032;2023-06-24T02:12:11;0.60;;;0.60;;
67514;SDS011;60646;55.802;37.032;2023-06-24T02:14:38;0.70;;;0.70;;
67514;SDS011;60646;55.802;37.032;2023-06-24T02:17:24;0.90;;;0.60;;
67514;SDS011;60646;55.802;37.032;2023-06-24T02:19:51;0.45;;;0.40;;
67514;SDS011;60646;55.802;37.032;2023-06-24T02:22:19;0.50;;;0.50;;
67514;SDS011;60646;55.802;37.032;2023-06-24T02:24:47;0.82;;;0.75;;
67514;SDS011;60646;55.802;37.032;2023-06-24T02:27:15;1.08;;;0.80;;
67514;SDS011;60646;55.802;37.032;2023-06-24T02:29:41;1.00;;;0.68;;
67514;SDS011;60646;55.802;37.032;2023-06-24T02:32:08;0.90;;;0.70;;
67514;SDS011;60646;55.802;37.032;2023-06-24T02:34:35;0.60;;;0.60;;
67514;SDS011;60646;55.802;37.032;2023-06-24T02:37:01;0.95;;;0.60;;
67514;SDS011;60646;55.802;37.032;2023-06-24T02:39:27;1.52;;;0.60;;
67514;SDS011;60646;55.802;37.032;2023-06-24T02:41:54;0.73;;;0.50;;
67514;SDS011;60646;55.802;37.032;2023-06-24T02:44:20;0.60;;;0.60;;
67514;SDS011;60646;55.802;37.032;2023-06-24T02:46:45;0.50;;;0.47;;
67514;SDS011;60646;55.802;37.032;2023-06-24T02:49:13;0.85;;;0.70;;
67514;SDS011;60646;55.802;37.032;2023-06-24T02:51:59;0.43;;;0.43;;
67514;SDS011;60646;55.802;37.032;2023-06-24T02:54:25;0.40;;;0.40;;
67514;SDS011;60646;55.802;37.032;2023-06-24T02:57:12;0.88;;;0.57;;
67514;SDS011;60646;55.802;37.032;2023-06-24T02:59:59;0.75;;;0.50;;
67514;SDS011;60646;55.802;37.032;2023-06-24T03:02:37;0.57;;;0.57;;
67514;SDS011;60646;55.802;37.032;2023-06-24T03:05:04;0.57;;;0.50;;
67514;SDS011;60646;55.802;37.032;2023-06-24T03:07:31;0.57;;;0.50;;
67514;SDS011;60646;55.802;37.032;2023-06-24T03:10:01;0.50;;;0.50;;
67514;SDS011;60646;55.802;37.032;2023-06-24T03:12:31;1.48;;;0.60;;
67514;SDS011;60646;55.802;37.032;2023-06-24T03:14:57;0.95;;;0.60;;
67514;SDS011;60646;55.802;37.032;2023-06-24T03:17:26;0.40;;;0.40;;
67514;SDS011;60646;55.802;37.032;2023-06-24T03:19:52;0.50;;;0.50;;
67514;SDS011;60646;55.802;37.032;2023-06-24T03:22:20;0.60;;;0.52;;
67514;SDS011;60646;55.802;37.032;2023-06-24T03:24:50;0.50;;;0.50;;
67514;SDS011;60646;55.802;37.032;2023-06-24T03:27:18;0.50;;;0.50;;
67514;SDS011;60646;55.802;37.032;2023-06-24T03:29:45;0.40;;;0.40;;
67514;SDS011;60646;55.802;37.032;2023-06-24T03:32:12;0.57;;;0.50;;
67514;SDS011;60646;55.802;37.032;2023-06-24T03:34:39;0.60;;;0.50;;
67514;SDS011;60646;55.802;37.032;2023-06-24T03:37:05;0.70;;;0.50;;
67514;SDS011;60646;55.802;37.032;2023-06-24T03:39:32;0.50;;;0.50;;
67514;SDS011;60646;55.802;37.032;2023-06-24T03:41:58;1.70;;;0.47;;
67514;SDS011;60646;55.802;37.032;2023-06-24T03:44:24;0.40;;;0.40;;
67514;SDS011;60646;55.802;37.032;2023-06-24T03:46:50;0.35;;;0.32;;
67514;SDS011;60646;55.802;37.032;2023-06-24T03:49:16;0.40;;;0.40;;
67514;SDS011;60646;55.802;37.032;2023-06-24T03:51:42;0.40;;;0.40;;
67514;SDS011;60646;55.802;37.032;2023-06-24T03:54:08;0.40;;;0.30;;
67514;SDS011;60646;55.802;37.032;2023-06-24T03:56:34;0.40;;;0.40;;
67514;SDS011;60646;55.802;37.032;2023-06-24T03:58:59;0.93;;;0.40;;
67514;SDS011;60646;55.802;37.032;2023-06-24T04:01:25;0.40;;;0.40;;
67514;SDS011;60646;55.802;37.032;2023-06-24T04:03:51;0.32;;;0.32;;
67514;SDS011;60646;55.802;37.032;2023-06-24T04:06:16;0.40;;;0.40;;
67514;SDS011;60646;55.802;37.032;2023-06-24T04:08:42;0.45;;;0.45;;
67514;SDS011;60646;55.802;37.032;2023-06-24T04:11:08;0.60;;;0.40;;
67514;SDS011;60646;55.802;37.032;2023-06-24T04:13:35;0.30;;;0.30;;
67514;SDS011;60646;55.802;37.032;2023-06-24T04:16:01;0.57;;;0.50;;
67514;SDS011;60646;55.802;37.032;2023-06-24T04:18:27;0.30;;;0.30;;
67514;SDS011;60646;55.802;37.032;2023-06-24T04:20:53;0.40;;;0.40;;
67514;SDS011;60646;55.802;37.032;2023-06-24T04:23:19;1.45;;;0.60;;
67514;SDS011;60646;55.802;37.032;2023-06-24T04:25:45;1.63;;;0.40;;
67514;SDS011;60646;55.802;37.032;2023-06-24T04:28:11;0.70;;;0.65;;
67514;SDS011;60646;55.802;37.032;2023-06-24T04:30:37;0.60;;;0.60;;
67514;SDS011;60646;55.802;37.032;2023-06-24T04:33:07;0.43;;;0.43;;
67514;SDS011;60646;55.802;37.032;2023-06-24T04:35:33;0.50;;;0.50;;
67514;SDS011;60646;55.802;37.032;2023-06-24T04:37:59;2.70;;;0.70;;
67514;SDS011;60646;55.802;37.032;2023-06-24T04:40:24;1.00;;;0.50;;
67514;SDS011;60646;55.802;37.032;2023-06-24T04:42:50;0.65;;;0.50;;
67514;SDS011;60646;55.802;37.032;2023-06-24T04:45:16;0.98;;;0.57;;
67514;SDS011;60646;55.802;37.032;2023-06-24T04:47:42;2.30;;;0.70;;
67514;SDS011;60646;55.802;37.032;2023-06-24T04:50:09;1.05;;;0.50;;
67514;SDS011;60646;55.802;37.032;2023-06-24T04:52:35;0.40;;;0.40;;
67514;SDS011;60646;55.802;37.032;2023-06-24T04:55:01;0.52;;;0.45;;
67514;SDS011;60646;55.802;37.032;2023-06-24T04:57:28;2.67;;;0.50;;
67514;SDS011;60646;55.802;37.032;2023-06-24T04:59:56;0.55;;;0.55;;
67514;SDS011;60646;55.802;37.032;2023-06-24T05:02:22;0.50;;;0.50;;
67514;SDS011;60646;55.802;37.032;2023-06-24T05:04:48;1.40;;;0.40;;
67514;SDS011;60646;55.802;37.032;2023-06-24T05:07:15;0.65;;;0.47;;
67514;SDS011;60646;55.802;37.032;2023-06-24T05:09:41;0.50;;;0.50;;
67514;SDS011;60646;55.802;37.032;2023-06-24T05:12:08;0.40;;;0.40;;
67514;SDS011;60646;55.802;37.032;2023-06-24T05:14:34;0.30;;;0.30;;
67514;SDS011;60646;55.802;37.032;2023-06-24T05:17:25;0.45;;;0.45;;
67514;SDS011;60646;55.802;37.032;2023-06-24T05:19:51;0.40;;;0.40;;
67514;SDS011;60646;55.802;37.032;2023-06-24T05:22:17;0.38;;;0.38;;
67514;SDS011;60646;55.802;37.032;2023-06-24T05:24:43;0.50;;;0.50;;
67514;SDS011;60646;55.802;37.032;2023-06-24T05:27:09;0.43;;;0.40;;
67514;SDS011;60646;55.802;37.032;2023-06-24T05:29:34;0.60;;;0.40;;
67514;SDS011;60646;55.802;37.032;2023-06-24T05:32:00;0.45;;;0.40;;
67514;SDS011;60646;55.802;37.032;2023-06-24T05:34:29;1.60;;;0.50;;
67514;SDS011;60646;55.802;37.032;2023-06-24T05:36:56;0.40;;;0.40;;
67514;SDS011;60646;55.802;37.032;2023-06-24T05:39:21;0.75;;;0.40;;
67514;SDS011;60646;55.802;37.032;2023-06-24T05:41:47;0.80;;;0.30;;
67514;SDS011;60646;55.802;37.032;2023-06-24T05:44:16;1.13;;;0.60;;
67514;SDS011;60646;55.802;37.032;2023-06-24T05:46:44;1.70;;;0.55;;
67514;SDS011;60646;55.802;37.032;2023-06-24T05:49:10;0.47;;;0.47;;
67514;SDS011;60646;55.802;37.032;2023-06-24T05:51:36;0.40;;;0.40;;
67514;SDS011;60646;55.802;37.032;2023-06-24T05:54:02;0.32;;;0.32;;
67514;SDS011;60646;55.802;37.032;2023-06-24T05:56:29;0.30;;;0.30;;
67514;SDS011;60646;55.802;37.032;2023-06-24T05:58:55;0.47;;;0.40;;
67514;SDS011;60646;55.802;37.032;2023-06-24T06:01:21;0.50;;;0.40;;
67514;SDS011;60646;55.802;37.032;2023-06-24T06:03:47;1.27;;;0.55;;
67514;SDS011;60646;55.802;37.032;2023-06-24T06:06:13;0.57;;;0.50;;
67514;SDS011;60646;55.802;37.032;2023-06-24T06:08:38;0.30;;;0.30;;
67514;SDS011;60646;55.802;37.032;2023-06-24T06:11:04;0.55;;;0.55;;
67514;SDS011;60646;55.802;37.032;2023-06-24T06:13:30;1.02;;;0.60;;
67514;SDS011;60646;55.802;37.032;2023-06-24T06:15:56;0.70;;;0.45;;
67514;SDS011;60646;55.802;37.032;2023-06-24T06:18:23;0.50;;;0.50;;
67514;SDS011;60646;55.802;37.032;2023-06-24T06:20:49;0.40;;;0.40;;
67514;SDS011;60646;55.802;37.032;2023-06-24T06:23:15;0.63;;;0.57;;
67514;SDS011;60646;55.802;37.032;2023-06-24T06:25:41;0.52;;;0.50;;
67514;SDS011;60646;55.802;37.032;2023-06-24T06:28:07;0.40;;;0.40;;
67514;SDS011;60646;55.802;37.032;2023-06-24T06:30:33;1.48;;;0.60;;
67514;SDS011;60646;55.802;37.032;2023-06-24T06:32:59;0.77;;;0.50;;
67514;SDS011;60646;55.802;37.032;2023-06-24T06:35:24;0.50;;;0.50;;
67514;SDS011;60646;55.802;37.032;2023-06-24T06:37:50;0.90;;;0.50;;
67514;SDS011;60646;55.802;37.032;2023-06-24T06:40:20;0.63;;;0.50;;
67514;SDS011;60646;55.802;37.032;2023-06-24T06:42:46;0.85;;;0.65;;
67514;SDS011;60646;55.802;37.032;2023-06-24T06:45:12;1.58;;;0.70;;
67514;SDS011;60646;55.802;37.032;2023-06-24T06:47:38;0.47;;;0.30;;
67514;SDS011;60646;55.802;37.032;2023-06-24T06:50:04;0.40;;;0.40;;
67514;SDS011;60646;55.802;37.032;2023-06-24T06:52:30;0.77;;;0.60;;
67514;SDS011;60646;55.802;37.032;2023-06-24T06:54:56;0.60;;;0.60;;
67514;SDS011;60646;55.802;37.032;2023-06-24T06:57:22;1.83;;;0.70;;
67514;SDS011;60646;55.802;37.032;2023-06-24T06:59:48;0.50;;;0.50;;
67514;SDS011;60646;55.802;37.032;2023-06-24T07:02:19;0.90;;;0.57;;
67514;SDS011;60646;55.802;37.032;2023-06-24T07:04:45;0.60;;;0.60;;
67514;SDS011;60646;55.802;37.032;2023-06-24T07:07:13;0.68;;;0.68;;
67514;SDS011;60646;55.802;37.032;2023-06-24T07:09:39;0.80;;;0.80;;
67514;SDS011;60646;55.802;37.032;2023-06-24T07:12:05;1.20;;;1.00;;
67514;SDS011;60646;55.802;37.032;2023-06-24T07:14:32;1.00;;;0.90;;
67514;SDS011;60646;55.802;37.032;2023-06-24T07:16:58;1.10;;;1.00;;
67514;SDS011;60646;55.802;37.032;2023-06-24T07:19:23;1.02;;;0.93;;
67514;SDS011;60646;55.802;37.032;2023-06-24T07:21:49;1.75;;;1.10;;
67514;SDS011;60646;55.802;37.032;2023-06-24T07:24:15;2.67;;;1.02;;
67514;SDS011;60646;55.802;37.032;2023-06-24T07:26:41;1.83;;;1.15;;
67514;SDS011;60646;55.802;37.032;2023-06-24T07:29:06;2.25;;;1.13;;
67514;SDS011;60646;55.802;37.032;2023-06-24T07:31:33;2.33;;;1.20;;
67514;SDS011;60646;55.802;37.032;2023-06-24T07:33:59;1.45;;;1.10;;
67514;SDS011;60646;55.802;37.032;2023-06-24T07:36:25;1.50;;;1.33;;
67514;SDS011;60646;55.802;37.032;2023-06-24T07:38:50;2.00;;;1.30;;
67514;SDS011;60646;55.802;37.032;2023-06-24T07:41:16;2.70;;;1.45;;
67514;SDS011;60646;55.802;37.032;2023-06-24T07:43:42;1.90;;;1.60;;
67514;SDS011;60646;55.802;37.032;2023-06-24T07:46:08;1.90;;;1.48;;
67514;SDS011;60646;55.802;37.032;2023-06-24T07:48:34;4.00;;;1.50;;
67514;SDS011;60646;55.802;37.032;2023-06-24T07:51:00;2.13;;;1.70;;
67514;SDS011;60646;55.802;37.032;2023-06-24T07:53:26;2.00;;;1.50;;
67514;SDS011;60646;55.802;37.032;2023-06-24T07:55:51;2.15;;;1.65;;
67514;SDS011;60646;55.802;37.032;2023-06-24T07:58:17;1.80;;;1.50;;
67514;SDS011;60646;55.802;37.032;2023-06-24T08:00:45;2.10;;;1.50;;
67514;SDS011;60646;55.802;37.032;2023-06-24T08:03:12;2.05;;;1.45;;
67514;SDS011;60646;55.802;37.032;2023-06-24T08:05:38;2.53;;;1.92;;
67514;SDS011;60646;55.802;37.032;2023-06-24T08:08:05;3.05;;;1.50;;
67514;SDS011;60646;55.802;37.032;2023-06-24T08:10:31;2.40;;;1.63;;
67514;SDS011;60646;55.802;37.032;2023-06-24T08:12:57;2.38;;;1.92;;
67514;SDS011;60646;55.802;37.032;2023-06-24T08:15:23;2.78;;;1.80;;
67514;SDS011;60646;55.802;37.032;2023-06-24T08:17:52;4.18;;;1.70;;
67514;SDS011;60646;55.802;37.032;2023-06-24T08:20:19;1.83;;;1.45;;
67514;SDS011;60646;55.802;37.032;2023-06-24T08:22:46;2.30;;;1.63;;
67514;SDS011;60646;55.802;37.032;2023-06-24T08:25:12;3.50;;;2.00;;
67514;SDS011;60646;55.802;37.032;2023-06-24T08:27:37;2.25;;;1.70;;
67514;SDS011;60646;55.802;37.032;2023-06-24T08:30:07;3.33;;;1.77;;
67514;SDS011;60646;55.802;37.032;2023-06-24T08:32:33;3.15;;;1.80;;
67514;SDS011;60646;55.802;37.032;2023-06-24T08:34:59;3.00;;;1.88;;
67514;SDS011;60646;55.802;37.032;2023-06-24T08:37:25;4.82;;;1.55;;
67514;SDS011;60646;55.802;37.032;2023-06-24T08:39:51;2.78;;;1.90;;
67514;SDS011;60646;55.802;37.032;2023-06-24T08:42:16;3.03;;;1.70;;
67514;SDS011;60646;55.802;37.032;2023-06-24T08:44:42;2.42;;;1.55;;
67514;SDS011;60646;55.802;37.032;2023-06-24T08:47:08;1.75;;;1.58;;
67514;SDS011;60646;55.802;37.032;2023-06-24T08:49:35;5.03;;;1.92;;
67514;SDS011;60646;55.802;37.032;2023-06-24T08:52:09;4.78;;;2.45;;
67514;SDS011;60646;55.802;37.032;2023-06-24T08:54:38;1.87;;;1.57;;
67514;SDS011;60646;55.802;37.032;2023-06-24T08:57:06;2.28;;;2.00;;
67514;SDS011;60646;55.802;37.032;2023-06-24T08:59:34;2.25;;;1.85;;
67514;SDS011;60646;55.802;37.032;2023-06-24T09:02:00;2.30;;;1.83;;
67514;SDS011;60646;55.802;37.032;2023-06-24T09:04:26;2.78;;;2.13;;
67514;SDS011;60646;55.802;37.032;2023-06-24T09:06:52;2.97;;;2.30;;
67514;SDS011;60646;55.802;37.032;2023-06-24T09:09:18;1.88;;;1.70;;
67514;SDS011;60646;55.802;37.032;2023-06-24T09:11:55;3.33;;;2.00;;
67514;SDS011;60646;55.802;37.032;2023-06-24T09:14:25;2.72;;;1.98;;
67514;SDS011;60646;55.802;37.032;2023-06-24T09:16:53;2.67;;;2.05;;
67514;SDS011;60646;55.802;37.032;2023-06-24T09:19:24;2.72;;;2.08;;
67514;SDS011;60646;55.802;37.032;2023-06-24T09:22:16;4.47;;;2.15;;
67514;SDS011;60646;55.802;37.032;2023-06-24T09:24:45;2.83;;;1.95;;
67514;SDS011;60646;55.802;37.032;2023-06-24T09:27:13;4.82;;;2.05;;
67514;SDS011;60646;55.802;37.032;2023-06-24T09:29:40;3.47;;;2.20;;
67514;SDS011;60646;55.802;37.032;2023-06-24T09:32:07;5.38;;;2.60;;
67514;SDS011;60646;55.802;37.032;2023-06-24T09:34:34;5.22;;;2.50;;
67514;SDS011;60646;55.802;37.032;2023-06-24T09:37:00;8.45;;;3.60;;
67514;SDS011;60646;55.802;37.032;2023-06-24T09:39:27;4.28;;;2.80;;
67514;SDS011;60646;55.802;37.032;2023-06-24T09:41:57;3.92;;;2.80;;
67514;SDS011;60646;55.802;37.032;2023-06-24T09:44:24;3.35;;;2.70;;
67514;SDS011;60646;55.802;37.032;2023-06-24T09:46:51;4.50;;;3.40;;
67514;SDS011;60646;55.802;37.032;2023-06-24T09:49:17;6.97;;;2.97;;
67514;SDS011;60646;55.802;37.032;2023-06-24T09:51:45;6.00;;;3.15;;
67514;SDS011;60646;55.802;37.032;2023-06-24T09:54:14;5.18;;;3.05;;
67514;SDS011;60646;55.802;37.032;2023-06-24T09:56:45;8.43;;;3.65;;
67514;SDS011;60646;55.802;37.032;2023-06-24T09:59:13;4.82;;;3.50;;
67514;SDS011;60646;55.802;37.032;2023-06-24T10:01:42;8.90;;;3.42;;
67514;SDS011;60646;55.802;37.032;2023-06-24T10:04:09;9.85;;;3.75;;
67514;SDS011;60646;55.802;37.032;2023-06-24T10:06:40;6.53;;;3.70;;
67514;SDS011;60646;55.802;37.032;2023-06-24T10:09:06;5.50;;;3.42;;
67514;SDS011;60646;55.802;37.032;2023-06-24T10:11:32;5.03;;;3.33;;
67514;SDS011;60646;55.802;37.032;2023-06-24T10:13:57;8.50;;;3.80;;
67514;SDS011;60646;55.802;37.032;2023-06-24T10:16:23;6.78;;;4.50;;
67514;SDS011;60646;55.802;37.032;2023-06-24T10:18:49;9.55;;;4.28;;
67514;SDS011;60646;55.802;37.032;2023-06-24T10:21:15;5.43;;;3.95;;
67514;SDS011;60646;55.802;37.032;2023-06-24T10:23:42;5.35;;;3.53;;
67514;SDS011;60646;55.802;37.032;2023-06-24T10:26:09;4.15;;;3.40;;
67514;SDS011;60646;55.802;37.032;2023-06-24T10:42:28;6.15;;;3.90;;
67514;SDS011;60646;55.802;37.032;2023-06-24T10:44:59;4.55;;;3.40;;
67514;SDS011;60646;55.802;37.032;2023-06-24T10:47:35;7.07;;;3.75;;
67514;SDS011;60646;55.802;37.032;2023-06-24T10:50:04;4.88;;;3.75;;
67514;SDS011;60646;55.802;37.032;2023-06-24T10:52:31;5.85;;;3.85;;
67514;SDS011;60646;55.802;37.032;2023-06-24T10:54:57;5.38;;;4.03;;
67514;SDS011;60646;55.802;37.032;2023-06-24T10:57:24;4.18;;;3.45;;
67514;SDS011;60646;55.802;37.032;2023-06-24T10:59:53;4.72;;;3.38;;
67514;SDS011;60646;55.802;37.032;2023-06-24T11:02:20;4.18;;;3.42;;
67514;SDS011;60646;55.802;37.032;2023-06-24T11:04:48;5.30;;;3.63;;
67514;SDS011;60646;55.802;37.032;2023-06-24T11:07:34;4.20;;;3.13;;
67514;SDS011;60646;55.802;37.032;2023-06-24T11:12:32;3.92;;;3.08;;
67514;SDS011;60646;55.802;37.032;2023-06-24T11:14:59;3.80;;;3.05;;
67514;SDS011;60646;55.802;37.032;2023-06-24T11:17:33;4.45;;;3.55;;
67514;SDS011;60646;55.802;37.032;2023-06-24T11:20:01;4.80;;;3.35;;
67514;SDS011;60646;55.802;37.032;2023-06-24T11:22:30;3.58;;;3.10;;
67514;SDS011;60646;55.802;37.032;2023-06-24T11:24:56;3.97;;;3.15;;
67514;SDS011;60646;55.802;37.032;2023-06-24T11:29:54;5.13;;;3.22;;
67514;SDS011;60646;55.802;37.032;2023-06-24T11:34:49;3.28;;;2.65;;
67514;SDS011;60646;55.802;37.032;2023-06-24T11:37:16;3.67;;;2.92;;
67514;SDS011;60646;55.802;37.032;2023-06-24T11:39:44;2.75;;;2.45;;
67514;SDS011;60646;55.802;37.032;2023-06-24T11:42:29;3.38;;;2.70;;
67514;SDS011;60646;55.802;37.032;2023-06-24T11:44:59;2.90;;;2.38;;
67514;SDS011;60646;55.802;37.032;2023-06-24T11:47:26;3.33;;;2.50;;
67514;SDS011;60646;55.802;37.032;2023-06-24T11:49:52;5.32;;;2.50;;
67514;SDS011;60646;55.802;37.032;2023-06-24T11:52:18;3.28;;;2.70;;
67514;SDS011;60646;55.802;37.032;2023-06-24T11:54:45;3.00;;;2.30;;
67514;SDS011;60646;55.802;37.032;2023-06-24T11:57:11;2.97;;;2.53;;
67514;SDS011;60646;55.802;37.032;2023-06-24T11:59:38;3.13;;;2.60;;
67514;SDS011;60646;55.802;37.032;2023-06-24T12:02:04;2.95;;;2.20;;
67514;SDS011;60646;55.802;37.032;2023-06-24T12:04:30;3.55;;;3.08;;
67514;SDS011;60646;55.802;37.032;2023-06-24T12:06:57;3.20;;;2.90;;
67514;SDS011;60646;55.802;37.032;2023-06-24T12:09:23;2.70;;;2.17;;
67514;SDS011;60646;55.802;37.032;2023-06-24T12:11:52;4.70;;;2.63;;
67514;SDS011;60646;55.802;37.032;2023-06-24T12:14:18;3.75;;;2.90;;
67514;SDS011;60646;55.802;37.032;2023-06-24T12:16:44;5.45;;;3.47;;
67514;SDS011;60646;55.802;37.032;2023-06-24T12:19:10;5.93;;;4.32;;
67514;SDS011;60646;55.802;37.032;2023-06-24T12:21:37;4.57;;;3.10;;
67514;SDS011;60646;55.802;37.032;2023-06-24T12:24:03;3.05;;;2.28;;
67514;SDS011;60646;55.802;37.032;2023-06-24T12:26:31;4.88;;;3.17;;
67514;SDS011;60646;55.802;37.032;2023-06-24T12:28:57;2.35;;;1.90;;
67514;SDS011;60646;55.802;37.032;2023-06-24T12:31:23;2.08;;;1.70;;
67514;SDS011;60646;55.802;37.032;2023-06-24T12:33:50;2.45;;;2.15;;
67514;SDS011;60646;55.802;37.032;2023-06-24T12:36:17;2.20;;;1.70;;
67514;SDS011;60646;55.802;37.032;2023-06-24T12:38:43;2.75;;;1.70;;
67514;SDS011;60646;55.802;37.032;2023-06-24T12:41:09;2.78;;;2.00;;
67514;SDS011;60646;55.802;37.032;2023-06-24T12:43:35;2.70;;;2.05;;
67514;SDS011;60646;55.802;37.032;2023-06-24T12:46:01;3.00;;;1.70;;
67514;SDS011;60646;55.802;37.032;2023-06-24T12:48:26;2.65;;;1.98;;
67514;SDS011;60646;55.802;37.032;2023-06-24T12:50:52;3.88;;;1.80;;
67514;SDS011;60646;55.802;37.032;2023-06-24T12:53:19;2.38;;;1.50;;
67514;SDS011;60646;55.802;37.032;2023-06-24T12:55:46;1.70;;;1.23;;
67514;SDS011;60646;55.802;37.032;2023-06-24T12:58:13;2.33;;;1.63;;
67514;SDS011;60646;55.802;37.032;2023-06-24T13:00:40;3.22;;;1.55;;
67514;SDS011;60646;55.802;37.032;2023-06-24T13:03:24;2.25;;;1.60;;
67514;SDS011;60646;55.802;37.032;2023-06-24T13:06:08;1.45;;;1.30;;
67514;SDS011;60646;55.802;37.032;2023-06-24T13:11:19;1.85;;;1.40;;
67514;SDS011;60646;55.802;37.032;2023-06-24T13:16:29;1.88;;;1.40;;
67514;SDS011;60646;55.802;37.032;2023-06-24T13:18:55;1.58;;;1.20;;
67514;SDS011;60646;55.802;37.032;2023-06-24T13:21:20;1.92;;;1.45;;
67514;SDS011;60646;55.802;37.032;2023-06-24T13:24:05;2.25;;;1.58;;
67514;SDS011;60646;55.802;37.032;2023-06-24T13:26:31;1.88;;;1.42;;
67514;SDS011;60646;55.802;37.032;2023-06-24T13:28:56;2.50;;;1.55;;
67514;SDS011;60646;55.802;37.032;2023-06-24T13:31:22;1.92;;;1.50;;
67514;SDS011;60646;55.802;37.032;2023-06-24T13:33:48;1.70;;;1.45;;
67514;SDS011;60646;55.802;37.032;2023-06-24T13:39:01;1.70;;;1.42;;
67514;SDS011;60646;55.802;37.032;2023-06-24T13:41:28;2.47;;;1.60;;
67514;SDS011;60646;55.802;37.032;2023-06-24T13:43:57;2.05;;;1.73;;
67514;SDS011;60646;55.802;37.032;2023-06-24T13:46:24;2.15;;;1.50;;
67514;SDS011;60646;55.802;37.032;2023-06-24T13:48:50;1.98;;;1.38;;
67514;SDS011;60646;55.802;37.032;2023-06-24T13:51:16;2.08;;;1.30;;
67514;SDS011;60646;55.802;37.032;2023-06-24T13:53:43;1.65;;;1.33;;
67514;SDS011;60646;55.802;37.032;2023-06-24T13:56:09;2.92;;;1.40;;
67514;SDS011;60646;55.802;37.032;2023-06-24T13:58:35;2.22;;;1.20;;
67514;SDS011;60646;55.802;37.032;2023-06-24T14:01:00;1.38;;;1.02;;
67514;SDS011;60646;55.802;37.032;2023-06-24T14:03:26;1.42;;;1.20;;
67514;SDS011;60646;55.802;37.032;2023-06-24T14:05:52;2.22;;;1.27;;
67514;SDS011;60646;55.802;37.032;2023-06-24T14:08:18;1.75;;;1.42;;
67514;SDS011;60646;55.802;37.032;2023-06-24T14:10:43;1.92;;;1.40;;
67514;SDS011;60646;55.802;37.032;2023-06-24T14:13:09;1.80;;;1.40;;
67514;SDS011;60646;55.802;37.032;2023-06-24T14:15:35;1.55;;;1.33;;
67514;SDS011;60646;55.802;37.032;2023-06-24T14:18:01;1.52;;;1.20;;
67514;SDS011;60646;55.802;37.032;2023-06-24T14:20:26;2.03;;;1.48;;
67514;SDS011;60646;55.802;37.032;2023-06-24T14:22:52;1.73;;;1.30;;
67514;SDS011;60646;55.802;37.032;2023-06-24T14:25:36;2.65;;;1.40;;
67514;SDS011;60646;55.802;37.032;2023-06-24T14:28:03;1.30;;;1.20;;
67514;SDS011;60646;55.802;37.032;2023-06-24T14:30:48;2.17;;;1.42;;
67514;SDS011;60646;55.802;37.032;2023-06-24T14:33:14;2.38;;;1.48;;
67514;SDS011;60646;55.802;37.032;2023-06-24T14:35:59;2.70;;;1.38;;
67514;SDS011;60646;55.802;37.032;2023-06-24T14:38:25;2.10;;;1.48;;
67514;SDS011;60646;55.802;37.032;2023-06-24T14:40:50;2.30;;;1.80;;
67514;SDS011;60646;55.802;37.032;2023-06-24T14:43:16;3.33;;;2.47;;
67514;SDS011;60646;55.802;37.032;2023-06-24T14:45:44;3.97;;;3.05;;
67514;SDS011;60646;55.802;37.032;2023-06-24T14:48:10;3.83;;;2.05;;
67514;SDS011;60646;55.802;37.032;2023-06-24T14:50:35;4.35;;;2.63;;
67514;SDS011;60646;55.802;37.032;2023-06-24T14:53:01;3.55;;;2.05;;
67514;SDS011;60646;55.802;37.032;2023-06-24T14:55:27;2.13;;;1.70;;
67514;SDS011;60646;55.802;37.032;2023-06-24T14:57:53;2.15;;;1.58;;
67514;SDS011;60646;55.802;37.032;2023-06-24T15:00:19;2.80;;;1.52;;
67514;SDS011;60646;55.802;37.032;2023-06-24T15:02:45;1.83;;;1.60;;
67514;SDS011;60646;55.802;37.032;2023-06-24T15:05:10;2.70;;;1.38;;
67514;SDS011;60646;55.802;37.032;2023-06-24T15:07:36;1.98;;;1.60;;
67514;SDS011;60646;55.802;37.032;2023-06-24T15:10:04;1.92;;;1.70;;
67514;SDS011;60646;55.802;37.032;2023-06-24T15:12:31;4.53;;;1.70;;
67514;SDS011;60646;55.802;37.032;2023-06-24T15:14:57;2.20;;;1.92;;
67514;SDS011;60646;55.802;37.032;2023-06-24T15:17:41;2.38;;;1.77;;
67514;SDS011;60646;55.802;37.032;2023-06-24T15:20:10;1.85;;;1.60;;